Sao Miguel dos Campos, Brazil
Current Conditions -  °F | °C
As of 7:00 AM on Thursday 25 Dec 2014 (Local Time) from SBMO Reporting Station
Scattered Clouds Scattered Clouds  
Wind Chill: 75°   Ceiling: Unl
Heat Index: 75°   Visibility: 6mi
Dew Point: 73°   Wind: 3mph
Humidity: 94%   Direction: 360°N
Pressure: 30"   Gusts: NA
Location:  9.78°S, 36.09°W
Report Text: SBMO 251000Z 36003KT 9999 SCT020 24/23 Q1016
Loading
Personal Weather Stations






























Interactive Weather Map New forecast layout! Learn more

10-Day Weather Forecast

Advertisements
Track Severe Weather on mobile